Terminal Aerodrome Forecast
Issued by NWS

Home | Current Version | Previous Version | Text Only | Print | Product List | Glossary On
Versions: 1 2 3 4 5 6 7 8 9 10 11 12 13 14 15 16 17 18 19 20 21 22 23 24 25 26 27 28 29 30 31 32
997
FTUS46 KEKA 051913 AAA
TAFCEC
TAF AMD
KCEC 051913Z 0519/0618 32010KT P6SM SCT007
     FM052100 32015G25KT P6SM SCT007 SCT050
     FM060500 33012KT 6SM BR BKN010
     FM061000 35008KT 3SM BR VCSH BKN007 BKN100
     FM061700 33015KT P6SM OVC100=

USA.gov is the U.S. government's official web portal to all federal, state and local government web resources and services.